createdAt,value
2018-11-23T00:00:29.112Z,-0.0
2018-11-23T00:01:31.027Z,-0.0
2018-11-23T00:02:32.600Z,-0.0
2018-11-23T00:03:34.975Z,-0.0
2018-11-23T00:04:37.093Z,-0.1
2018-11-23T00:05:39.807Z,-0.1
2018-11-23T00:06:41.525Z,-0.1
2018-11-23T00:07:43.259Z,-0.1
2018-11-23T00:08:44.958Z,-0.1
2018-11-23T00:09:46.663Z,-0.1
2018-11-23T00:10:48.470Z,-0.1
2018-11-23T00:11:50.146Z,-0.1
2018-11-23T00:12:51.802Z,-0.1
2018-11-23T00:13:53.698Z,-0.0
2018-11-23T00:14:55.294Z,-0.1
2018-11-23T00:15:56.922Z,-0.1
2018-11-23T00:16:58.605Z,-0.1
2018-11-23T00:18:00.350Z,-0.1
2018-11-23T00:19:02.050Z,-0.2
2018-11-23T00:20:03.872Z,-0.1
2018-11-23T00:21:05.589Z,-0.1
2018-11-23T00:22:07.279Z,-0.1
2018-11-23T00:23:09.402Z,-0.2
2018-11-23T00:24:11.153Z,-0.2
2018-11-23T00:25:12.817Z,-0.2
2018-11-23T00:26:14.756Z,-0.3
2018-11-23T00:27:16.453Z,-0.2
2018-11-23T00:28:18.292Z,-0.2
2018-11-23T00:29:19.996Z,-0.1
2018-11-23T00:30:21.797Z,-0.3
2018-11-23T00:31:23.505Z,-0.3
2018-11-23T00:32:25.493Z,-0.3
2018-11-23T00:33:27.182Z,-0.3
2018-11-23T00:34:28.989Z,-0.3
2018-11-23T00:35:30.631Z,-0.3
2018-11-23T00:36:32.494Z,-0.3
2018-11-23T00:37:34.201Z,-0.3
2018-11-23T00:38:36.121Z,-0.3
2018-11-23T00:39:37.792Z,-0.3
2018-11-23T00:40:39.525Z,-0.3
2018-11-23T00:41:41.492Z,-0.3
2018-11-23T00:42:43.134Z,-0.4
2018-11-23T00:43:44.760Z,-0.4
2018-11-23T00:44:46.626Z,-0.3
2018-11-23T00:45:48.221Z,-0.4
2018-11-23T00:46:50.163Z,-0.3
2018-11-23T00:47:51.812Z,-0.3
2018-11-23T00:48:53.576Z,-0.3
2018-11-23T00:49:55.233Z,-0.4
2018-11-23T00:50:57.213Z,-0.3
2018-11-23T00:51:58.863Z,-0.4
2018-11-23T00:53:00.838Z,-0.3
2018-11-23T00:54:02.523Z,-0.4
2018-11-23T00:55:04.753Z,-0.4
2018-11-23T00:56:06.513Z,-0.4
2018-11-23T00:57:08.379Z,-0.4
2018-11-23T00:58:10.033Z,-0.5
2018-11-23T00:59:11.928Z,-0.3
2018-11-23T01:00:13.582Z,-0.4
2018-11-23T01:01:16.074Z,-0.5
2018-11-23T01:02:17.849Z,-0.4
2018-11-23T01:03:19.561Z,-0.4
2018-11-23T01:04:21.366Z,-0.3
2018-11-23T01:05:23.279Z,-0.4
2018-11-23T01:06:24.979Z,-0.3
2018-11-23T01:07:26.668Z,-0.5
2018-11-23T01:08:28.650Z,-0.4
2018-11-23T01:09:30.563Z,-0.5
2018-11-23T01:10:32.147Z,-0.4
2018-11-23T01:11:33.962Z,-0.5
2018-11-23T01:12:35.575Z,-0.4
2018-11-23T01:13:38.417Z,-0.5
2018-11-23T01:14:40.118Z,-0.5
2018-11-23T01:15:41.926Z,-0.4
2018-11-23T01:16:44.091Z,-0.5
2018-11-23T01:17:46.705Z,-0.5
2018-11-23T01:18:48.455Z,-0.5
2018-11-23T01:19:50.711Z,-0.5
2018-11-23T01:20:52.500Z,-0.5
2018-11-23T01:21:54.430Z,-0.5
2018-11-23T01:22:56.164Z,-0.6
2018-11-23T01:23:58.104Z,-0.5
2018-11-23T01:24:59.709Z,-0.5
2018-11-23T01:26:01.625Z,-0.5
2018-11-23T01:27:03.481Z,-0.5
2018-11-23T01:28:05.978Z,-0.5
2018-11-23T01:29:08.655Z,-0.6
2018-11-23T01:30:10.506Z,-0.6
2018-11-23T01:31:12.148Z,-0.6
2018-11-23T01:32:13.962Z,-0.5
2018-11-23T01:33:15.637Z,-0.6
2018-11-23T01:34:17.548Z,-0.5
2018-11-23T01:35:19.169Z,-0.6
2018-11-23T01:36:20.922Z,-0.5
2018-11-23T01:37:23.928Z,-0.6
2018-11-23T01:38:26.437Z,-0.5
2018-11-23T01:39:27.990Z,-0.5
2018-11-23T01:40:29.951Z,-0.6
2018-11-23T01:41:31.635Z,-0.6
2018-11-23T01:42:34.262Z,-0.5
2018-11-23T01:43:35.834Z,-0.5
2018-11-23T01:44:37.655Z,-0.5
2018-11-23T01:45:39.322Z,-0.5
2018-11-23T01:46:41.065Z,-0.5
2018-11-23T01:47:42.776Z,-0.6
2018-11-23T01:48:45.494Z,-0.6
2018-11-23T01:49:47.235Z,-0.6
2018-11-23T01:50:49.212Z,-0.6
2018-11-23T01:51:50.906Z,-0.6
2018-11-23T01:52:52.876Z,-0.6
2018-11-23T01:53:54.572Z,-0.6
2018-11-23T01:54:56.370Z,-0.6
2018-11-23T01:55:58.805Z,-0.5
2018-11-23T01:57:00.453Z,-0.6
2018-11-23T01:58:02.361Z,-0.5
2018-11-23T01:59:03.922Z,-0.6
2018-11-23T02:00:05.618Z,-0.6
2018-11-23T02:01:07.453Z,-0.6
2018-11-23T02:02:09.128Z,-0.6
2018-11-23T02:03:10.902Z,-0.6
2018-11-23T02:04:12.554Z,-0.7
2018-11-23T02:05:14.477Z,-0.7
2018-11-23T02:06:16.143Z,-0.8
2018-11-23T02:07:18.160Z,-0.7
2018-11-23T02:08:19.806Z,-0.7
2018-11-23T02:09:21.615Z,-0.7
2018-11-23T02:10:23.252Z,-0.7
2018-11-23T02:11:25.062Z,-0.7
2018-11-23T02:12:26.810Z,-0.7
2018-11-23T02:13:28.661Z,-0.7
2018-11-23T02:14:30.330Z,-0.8
2018-11-23T02:15:32.056Z,-0.7
2018-11-23T02:16:33.760Z,-0.7
2018-11-23T02:17:35.648Z,-0.7
2018-11-23T02:18:37.288Z,-0.7
2018-11-23T02:19:39.046Z,-0.7
2018-11-23T02:20:40.743Z,-0.7
2018-11-23T02:21:42.590Z,-0.7
2018-11-23T02:22:44.238Z,-0.8
2018-11-23T02:23:46.113Z,-0.7
2018-11-23T02:24:47.732Z,-0.7
2018-11-23T02:25:49.598Z,-0.8
2018-11-23T02:26:51.292Z,-0.8
2018-11-23T02:27:52.977Z,-0.7
2018-11-23T02:28:55.005Z,-0.8
2018-11-23T02:29:56.704Z,-0.8
2018-11-23T02:30:58.377Z,-0.8
2018-11-23T02:32:00.260Z,-0.8
2018-11-23T02:33:01.888Z,-0.8
2018-11-23T02:34:03.756Z,-0.8
2018-11-23T02:35:05.584Z,-0.8
2018-11-23T02:36:07.451Z,-0.9
2018-11-23T02:37:09.175Z,-0.8
2018-11-23T02:38:10.911Z,-0.8
2018-11-23T02:39:12.830Z,-0.8
2018-11-23T02:40:14.562Z,-0.8
2018-11-23T02:41:16.209Z,-0.8
2018-11-23T02:42:18.259Z,-0.8
2018-11-23T02:43:19.910Z,-0.8
2018-11-23T02:44:21.648Z,-0.9
2018-11-23T02:45:23.454Z,-0.8
2018-11-23T02:46:25.348Z,-0.8
2018-11-23T02:47:27.098Z,-0.8
2018-11-23T02:48:28.996Z,-0.7
2018-11-23T02:49:31.639Z,-0.8
2018-11-23T02:50:34.070Z,-0.8
2018-11-23T02:51:35.710Z,-0.8
2018-11-23T02:52:38.262Z,-0.7
2018-11-23T02:53:39.760Z,-0.8
2018-11-23T02:54:41.650Z,-0.8
2018-11-23T02:55:43.280Z,-0.9
2018-11-23T02:56:45.092Z,-0.9
2018-11-23T02:57:46.831Z,-0.8
2018-11-23T02:58:48.494Z,-0.8
2018-11-23T02:59:50.328Z,-0.9
2018-11-23T03:00:52.030Z,-0.8
2018-11-23T03:01:53.677Z,-0.8
2018-11-23T03:02:55.627Z,-0.9
2018-11-23T03:03:57.283Z,-0.9
2018-11-23T03:04:59.120Z,-0.9
2018-11-23T03:06:00.854Z,-0.9
2018-11-23T03:07:02.798Z,-0.8
2018-11-23T03:08:04.535Z,-0.9
2018-11-23T03:09:06.158Z,-0.9
2018-11-23T03:10:08.182Z,-0.9
2018-11-23T03:11:09.913Z,-0.8
2018-11-23T03:12:11.594Z,-0.9
2018-11-23T03:13:13.435Z,-0.9
2018-11-23T03:14:15.063Z,-1.0
2018-11-23T03:15:16.950Z,-1.0
2018-11-23T03:16:18.666Z,-0.9
2018-11-23T03:17:20.362Z,-0.9
2018-11-23T03:18:22.366Z,-1.0
2018-11-23T03:19:24.090Z,-0.9
2018-11-23T03:20:25.770Z,-0.9
2018-11-23T03:21:27.625Z,-0.9
2018-11-23T03:22:29.339Z,-1.0
2018-11-23T03:23:31.004Z,-1.0
2018-11-23T03:24:32.824Z,-0.9
2018-11-23T03:25:34.546Z,-1.1
2018-11-23T03:26:36.261Z,-0.9
2018-11-23T03:27:38.123Z,-0.9
2018-11-23T03:28:39.756Z,-0.9
2018-11-23T03:29:41.694Z,-1.0
2018-11-23T03:30:44.002Z,-1.0
2018-11-23T03:31:45.716Z,-0.9
2018-11-23T03:32:47.253Z,-1.0
2018-11-23T03:33:48.929Z,-0.9
2018-11-23T03:34:50.575Z,-0.9
2018-11-23T03:35:52.316Z,-0.9
2018-11-23T03:36:54.180Z,-1.0
2018-11-23T03:37:55.918Z,-0.9
2018-11-23T03:38:57.626Z,-1.0
2018-11-23T03:39:59.560Z,-0.9
2018-11-23T03:41:01.198Z,-1.1
2018-11-23T03:42:02.780Z,-1.0
2018-11-23T03:43:04.591Z,-1.0
2018-11-23T03:44:06.194Z,-1.0
2018-11-23T03:45:08.147Z,-1.0
2018-11-23T03:46:09.759Z,-0.9
2018-11-23T03:47:11.532Z,-0.9
2018-11-23T03:48:13.223Z,-1.0
2018-11-23T03:49:15.028Z,-1.0
2018-11-23T03:50:16.689Z,-1.1
2018-11-23T03:51:18.315Z,-1.0
2018-11-23T03:52:19.888Z,-1.1
2018-11-23T03:53:21.477Z,-1.0
2018-11-23T03:54:23.513Z,-1.0
2018-11-23T03:55:25.018Z,-1.0
2018-11-23T03:56:26.591Z,-1.0
2018-11-23T03:57:28.418Z,-1.1
2018-11-23T03:58:29.925Z,-1.1
2018-11-23T03:59:31.685Z,-1.1
2018-11-23T04:00:33.299Z,-1.1
2018-11-23T04:01:35.054Z,-1.1
2018-11-23T04:02:36.746Z,-1.0
2018-11-23T04:03:38.591Z,-1.1
2018-11-23T04:04:40.348Z,-1.1
2018-11-23T04:05:42.286Z,-1.1
2018-11-23T04:06:44.037Z,-1.1
2018-11-23T04:07:45.643Z,-1.0
2018-11-23T04:08:47.414Z,-1.0
2018-11-23T04:09:49.121Z,-1.1
2018-11-23T04:10:50.777Z,-1.0
2018-11-23T04:11:52.585Z,-1.0
2018-11-23T04:12:54.189Z,-1.0
2018-11-23T04:13:55.790Z,-1.2
2018-11-23T04:14:57.550Z,-1.1
2018-11-23T04:15:59.234Z,-1.1
2018-11-23T04:17:01.320Z,-1.1
2018-11-23T04:18:02.948Z,-1.1
2018-11-23T04:19:04.715Z,-1.1
2018-11-23T04:20:06.447Z,-1.1
2018-11-23T04:21:08.456Z,-1.1
2018-11-23T04:22:10.095Z,-1.0
2018-11-23T04:23:11.816Z,-1.1
2018-11-23T04:24:13.856Z,-1.1
2018-11-23T04:25:15.578Z,-1.1
2018-11-23T04:26:20.449Z,-1.1
2018-11-23T04:27:18.976Z,-1.1
2018-11-23T04:28:20.674Z,-1.0
2018-11-23T04:29:22.372Z,-1.1
2018-11-23T04:30:24.260Z,-1.1
2018-11-23T04:31:25.948Z,-1.1
2018-11-23T04:32:27.691Z,-1.1
2018-11-23T04:33:29.414Z,-1.1
2018-11-23T04:34:31.167Z,-1.1
2018-11-23T04:35:32.791Z,-1.1
2018-11-23T04:36:34.571Z,-1.1
2018-11-23T04:37:36.296Z,-1.1
2018-11-23T04:38:38.119Z,-1.2
2018-11-23T04:39:39.747Z,-1.1
2018-11-23T04:40:41.470Z,-1.1
2018-11-23T04:41:46.535Z,-1.1
2018-11-23T04:42:44.758Z,-1.1
2018-11-23T04:43:46.443Z,-1.1
2018-11-23T04:44:48.066Z,-1.1
2018-11-23T04:45:49.527Z,-1.1
2018-11-23T04:46:51.089Z,-1.1
2018-11-23T04:47:52.564Z,-1.2
2018-11-23T04:48:54.310Z,-1.1
2018-11-23T04:49:55.767Z,-1.1
2018-11-23T04:50:57.510Z,-1.1
2018-11-23T04:51:58.971Z,-1.1
2018-11-23T04:53:00.593Z,-1.1
2018-11-23T04:54:02.067Z,-1.1
2018-11-23T04:55:03.607Z,-1.1
2018-11-23T04:56:06.028Z,-1.2
2018-11-23T04:57:07.891Z,-1.1
2018-11-23T04:58:09.439Z,-1.1
2018-11-23T04:59:11.115Z,-1.1
2018-11-23T05:00:12.592Z,-1.1
2018-11-23T05:01:14.528Z,-1.2
2018-11-23T05:02:16.019Z,-1.2
2018-11-23T05:03:17.545Z,-1.1
2018-11-23T05:04:19.157Z,-1.3
2018-11-23T05:05:20.628Z,-1.2
2018-11-23T05:06:22.123Z,-1.2
2018-11-23T05:07:23.798Z,-1.3
2018-11-23T05:08:25.342Z,-1.2
2018-11-23T05:09:26.835Z,-1.3
2018-11-23T05:10:28.585Z,-1.2
2018-11-23T05:11:30.052Z,-1.2
2018-11-23T05:12:31.578Z,-1.2
2018-11-23T05:13:33.305Z,-1.3
2018-11-23T05:14:34.721Z,-1.2
2018-11-23T05:15:36.399Z,-1.2
2018-11-23T05:16:37.931Z,-1.2
2018-11-23T05:17:39.436Z,-1.2
2018-11-23T05:18:40.925Z,-1.3
2018-11-23T05:19:42.368Z,-1.2
2018-11-23T05:20:44.021Z,-1.3
2018-11-23T05:21:45.537Z,-1.3
2018-11-23T05:22:46.998Z,-1.2
2018-11-23T05:23:48.495Z,-1.2
2018-11-23T05:24:49.968Z,-1.2
2018-11-23T05:25:52.031Z,-1.2
2018-11-23T05:26:53.902Z,-1.3
2018-11-23T05:27:55.864Z,-1.2
2018-11-23T05:28:57.391Z,-1.3
2018-11-23T05:29:58.942Z,-1.2
2018-11-23T05:31:01.109Z,-1.2
2018-11-23T05:32:02.613Z,-1.2
2018-11-23T05:33:04.126Z,-1.3
2018-11-23T05:34:05.814Z,-1.2
2018-11-23T05:35:07.329Z,-1.2
2018-11-23T05:36:08.949Z,-1.2
2018-11-23T05:37:10.446Z,-1.3
2018-11-23T05:38:12.187Z,-1.2
2018-11-23T05:39:13.647Z,-1.3
2018-11-23T05:40:15.135Z,-1.3
2018-11-23T05:41:17.088Z,-1.3
2018-11-23T05:42:18.556Z,-1.2
2018-11-23T05:43:20.059Z,-1.3
2018-11-23T05:44:21.629Z,-1.3
2018-11-23T05:45:23.095Z,-1.2
2018-11-23T05:46:25.318Z,-1.2
2018-11-23T05:47:27.080Z,-1.2
2018-11-23T05:48:29.238Z,-1.2
2018-11-23T05:49:31.302Z,-1.3
2018-11-23T05:50:32.960Z,-1.2
2018-11-23T05:51:34.427Z,-1.3
2018-11-23T05:52:36.014Z,-1.2
2018-11-23T05:53:37.534Z,-1.2
2018-11-23T05:54:39.127Z,-1.2
2018-11-23T05:55:40.630Z,-1.3
2018-11-23T05:56:42.220Z,-1.3
2018-11-23T05:57:43.696Z,-1.3
2018-11-23T05:58:45.268Z,-1.3
2018-11-23T05:59:46.738Z,-1.3
2018-11-23T06:00:48.194Z,-1.2
2018-11-23T06:01:49.826Z,-1.2
2018-11-23T06:02:51.330Z,-1.3
2018-11-23T06:03:52.774Z,-1.2
2018-11-23T06:04:54.349Z,-1.3
2018-11-23T06:05:55.833Z,-1.3
2018-11-23T06:06:57.310Z,-1.2
2018-11-23T06:07:58.904Z,-1.3
2018-11-23T06:09:00.379Z,-1.2
2018-11-23T06:10:01.832Z,-1.3
2018-11-23T06:11:03.369Z,-1.3
2018-11-23T06:12:04.832Z,-1.3
2018-11-23T06:13:06.474Z,-1.3
2018-11-23T06:14:07.946Z,-1.3
2018-11-23T06:15:09.610Z,-1.3
2018-11-23T06:16:11.050Z,-1.3
2018-11-23T06:17:12.681Z,-1.3
2018-11-23T06:18:14.189Z,-1.3
2018-11-23T06:19:15.719Z,-1.3
2018-11-23T06:20:17.194Z,-1.3
2018-11-23T06:21:18.843Z,-1.3
2018-11-23T06:22:20.316Z,-1.3
2018-11-23T06:23:21.912Z,-1.3
2018-11-23T06:24:23.422Z,-1.3
2018-11-23T06:25:24.989Z,-1.3
2018-11-23T06:26:26.440Z,-1.3
2018-11-23T06:27:28.063Z,-1.3
2018-11-23T06:28:29.595Z,-1.3
2018-11-23T06:29:31.209Z,-1.3
2018-11-23T06:30:32.670Z,-1.4
2018-11-23T06:31:34.249Z,-1.3
2018-11-23T06:32:35.731Z,-1.4
2018-11-23T06:33:37.332Z,-1.3
2018-11-23T06:34:38.806Z,-1.3
2018-11-23T06:35:40.421Z,-1.3
2018-11-23T06:36:41.830Z,-1.3
2018-11-23T06:37:43.667Z,-1.3
2018-11-23T06:38:45.140Z,-1.3
2018-11-23T06:39:46.678Z,-1.3
2018-11-23T06:40:48.195Z,-1.3
2018-11-23T06:41:49.668Z,-1.4
2018-11-23T06:42:51.143Z,-1.3
2018-11-23T06:43:52.763Z,-1.4
2018-11-23T06:44:54.246Z,-1.3
2018-11-23T06:45:55.817Z,-1.4
2018-11-23T06:46:57.541Z,-1.4
2018-11-23T06:47:59.019Z,-1.3
2018-11-23T06:49:00.497Z,-1.3
2018-11-23T06:50:02.238Z,-1.4
2018-11-23T06:51:03.710Z,-1.3
2018-11-23T06:52:05.428Z,-1.3
2018-11-23T06:53:06.950Z,-1.3
2018-11-23T06:54:14.295Z,-1.3
2018-11-23T06:55:10.086Z,-1.3
2018-11-23T06:56:11.618Z,-1.3
2018-11-23T06:57:13.273Z,-1.3
2018-11-23T06:58:14.761Z,-1.4
2018-11-23T06:59:16.290Z,-1.3
2018-11-23T07:00:17.848Z,-1.3
2018-11-23T07:01:19.338Z,-1.3
2018-11-23T07:02:20.957Z,-1.3
2018-11-23T07:03:22.438Z,-1.4
2018-11-23T07:04:24.062Z,-1.3
2018-11-23T07:05:25.517Z,-1.3
2018-11-23T07:06:27.120Z,-1.3
2018-11-23T07:07:28.626Z,-1.3
2018-11-23T07:08:30.647Z,-1.3
2018-11-23T07:09:32.117Z,-1.3
2018-11-23T07:10:33.605Z,-1.2
2018-11-23T07:11:35.395Z,-1.3
2018-11-23T07:12:36.875Z,-1.2
2018-11-23T07:13:38.731Z,-1.2
2018-11-23T07:14:40.461Z,-1.3
2018-11-23T07:15:41.908Z,-1.3
2018-11-23T07:16:43.390Z,-1.3
2018-11-23T07:17:45.019Z,-1.2
2018-11-23T07:18:46.523Z,-1.2
2018-11-23T07:19:48.009Z,-1.2
2018-11-23T07:20:49.757Z,-1.2
2018-11-23T07:21:51.392Z,-1.2
2018-11-23T07:22:52.882Z,-1.2
2018-11-23T07:23:54.456Z,-1.3
2018-11-23T07:24:55.952Z,-1.1
2018-11-23T07:25:57.395Z,-1.1
2018-11-23T07:26:59.027Z,-1.1
2018-11-23T07:28:00.528Z,-1.1
2018-11-23T07:29:02.016Z,-1.1
2018-11-23T07:30:03.755Z,-1.1
2018-11-23T07:31:05.269Z,-1.1
2018-11-23T07:32:06.784Z,-1.1
2018-11-23T07:33:08.506Z,-1.0
2018-11-23T07:34:09.981Z,-1.1
2018-11-23T07:35:11.550Z,-1.0
2018-11-23T07:36:13.189Z,-1.0
2018-11-23T07:37:14.737Z,-1.1
2018-11-23T07:38:16.521Z,-0.9
2018-11-23T07:39:18.028Z,-0.9
2018-11-23T07:40:19.572Z,-1.0
2018-11-23T07:41:21.076Z,-1.0
2018-11-23T07:42:22.678Z,-0.9
2018-11-23T07:43:24.124Z,-1.0
2018-11-23T07:44:25.975Z,-1.0
2018-11-23T07:45:27.473Z,-1.0
2018-11-23T07:46:29.107Z,-1.0
2018-11-23T07:47:30.698Z,-0.8
2018-11-23T07:48:32.240Z,-0.9
2018-11-23T07:49:33.717Z,-0.9
2018-11-23T07:50:35.400Z,-0.9
2018-11-23T07:51:39.221Z,-0.9
2018-11-23T07:52:38.498Z,-0.8
2018-11-23T07:53:39.945Z,-0.8
2018-11-23T07:54:41.442Z,-0.8
2018-11-23T07:55:42.846Z,-0.8
2018-11-23T07:56:44.390Z,-0.8
2018-11-23T07:57:45.852Z,-0.7
2018-11-23T07:58:47.480Z,-0.8
2018-11-23T07:59:48.984Z,-0.7
2018-11-23T08:00:50.508Z,-0.6
2018-11-23T08:01:52.245Z,-0.8
2018-11-23T08:02:53.689Z,-0.7
2018-11-23T08:03:55.122Z,-0.7
2018-11-23T08:04:56.822Z,-0.6
2018-11-23T08:05:58.272Z,-0.6
2018-11-23T08:06:59.688Z,-0.6
2018-11-23T08:08:01.265Z,-0.6
2018-11-23T08:09:02.666Z,-0.5
2018-11-23T08:10:04.353Z,-0.6
2018-11-23T08:11:05.796Z,-0.5
2018-11-23T08:12:07.241Z,-0.6
2018-11-23T08:13:08.949Z,-0.6
2018-11-23T08:14:10.418Z,-0.6
2018-11-23T08:15:11.870Z,-0.5
2018-11-23T08:16:13.421Z,-0.6
2018-11-23T08:17:14.857Z,-0.6
2018-11-23T08:18:16.425Z,-0.6
2018-11-23T08:19:17.851Z,-0.4
2018-11-23T08:20:19.407Z,-0.4
2018-11-23T08:21:20.833Z,-0.5
2018-11-23T08:22:22.520Z,-0.4
2018-11-23T08:23:24.064Z,-0.4
2018-11-23T08:24:25.554Z,-0.3
2018-11-23T08:25:27.062Z,-0.4
2018-11-23T08:26:28.610Z,-0.4
2018-11-23T08:27:30.070Z,-0.4
2018-11-23T08:28:31.701Z,-0.4
2018-11-23T08:29:33.128Z,-0.3
2018-11-23T08:30:34.801Z,-0.3
2018-11-23T08:31:36.217Z,-0.3
2018-11-23T08:32:37.978Z,-0.3
2018-11-23T08:33:39.424Z,-0.3
2018-11-23T08:34:40.985Z,-0.3
2018-11-23T08:35:42.434Z,-0.3
2018-11-23T08:36:44.112Z,-0.1
2018-11-23T08:37:45.640Z,-0.2
2018-11-23T08:38:47.198Z,-0.1
2018-11-23T08:39:48.595Z,-0.1
2018-11-23T08:40:50.711Z,-0.1
2018-11-23T08:41:52.124Z,-0.1
2018-11-23T08:42:53.547Z,-0.0
2018-11-23T08:43:55.152Z,-0.0
2018-11-23T08:44:56.602Z,-0.0
2018-11-23T08:45:58.183Z,0.0
2018-11-23T08:46:59.765Z,0.1
2018-11-23T08:48:01.232Z,0.1
2018-11-23T08:49:02.789Z,-0.0
2018-11-23T08:50:04.230Z,0.1
2018-11-23T08:51:05.867Z,0.1
2018-11-23T08:52:07.296Z,0.1
2018-11-23T08:53:09.108Z,0.2
2018-11-23T08:54:10.525Z,0.1
2018-11-23T08:55:12.008Z,0.2
2018-11-23T08:56:13.444Z,0.2
2018-11-23T08:57:15.110Z,0.2
2018-11-23T08:58:16.514Z,0.3
2018-11-23T08:59:17.989Z,0.3
2018-11-23T09:00:19.464Z,0.3
2018-11-23T09:01:21.092Z,0.2
2018-11-23T09:02:22.527Z,0.3
2018-11-23T09:03:23.943Z,0.3
2018-11-23T09:04:25.596Z,0.4
2018-11-23T09:05:27.007Z,0.3
2018-11-23T09:06:28.447Z,0.4
2018-11-23T09:07:30.147Z,0.5
2018-11-23T09:08:31.562Z,0.4
2018-11-23T09:09:33.949Z,0.6
2018-11-23T09:10:34.465Z,0.6
2018-11-23T09:11:35.883Z,0.6
2018-11-23T09:12:37.352Z,0.6
2018-11-23T09:13:39.002Z,0.6
2018-11-23T09:14:40.474Z,0.7
2018-11-23T09:15:41.948Z,0.7
2018-11-23T09:16:43.560Z,0.6
2018-11-23T09:17:44.982Z,0.6
2018-11-23T09:18:46.597Z,0.7
2018-11-23T09:19:48.026Z,0.8
2018-11-23T09:20:49.677Z,0.8
2018-11-23T09:21:51.115Z,0.8
2018-11-23T09:22:52.529Z,0.9
2018-11-23T09:23:54.207Z,1.0
2018-11-23T09:24:55.657Z,0.9
2018-11-23T09:25:57.149Z,1.0
2018-11-23T09:26:58.763Z,1.0
2018-11-23T09:28:00.205Z,1.0
2018-11-23T09:29:01.683Z,1.0
2018-11-23T09:30:03.285Z,1.1
2018-11-23T09:31:04.693Z,1.1
2018-11-23T09:32:06.155Z,1.1
2018-11-23T09:33:07.800Z,1.2
2018-11-23T09:34:09.301Z,1.1
2018-11-23T09:35:11.025Z,1.2
2018-11-23T09:36:12.485Z,1.3
2018-11-23T09:37:13.992Z,1.3
2018-11-23T09:38:15.613Z,1.3
2018-11-23T09:39:17.091Z,1.4
2018-11-23T09:40:18.489Z,1.4
2018-11-23T09:41:20.303Z,1.5
2018-11-23T09:42:21.751Z,1.5
2018-11-23T09:43:23.182Z,1.5
2018-11-23T09:44:24.698Z,1.4
2018-11-23T09:45:26.195Z,1.5
2018-11-23T09:46:27.770Z,1.5
2018-11-23T09:47:29.286Z,1.5
2018-11-23T09:48:30.729Z,1.6
2018-11-23T09:49:32.338Z,1.6
2018-11-23T09:50:33.849Z,1.6
2018-11-23T09:51:35.324Z,1.5
2018-11-23T09:52:37.014Z,1.6
2018-11-23T09:53:38.438Z,1.6
2018-11-23T09:54:40.193Z,1.7
2018-11-23T09:55:41.594Z,1.8
2018-11-23T09:56:42.999Z,1.8
2018-11-23T09:57:44.579Z,1.9
2018-11-23T09:58:46.001Z,1.9
2018-11-23T09:59:47.418Z,1.9
2018-11-23T10:00:48.901Z,1.9
2018-11-23T10:01:50.306Z,2.1
2018-11-23T10:02:51.691Z,2.1
2018-11-23T10:03:53.230Z,2.0
2018-11-23T10:04:54.654Z,2.1
2018-11-23T10:05:56.141Z,2.1
2018-11-23T10:06:57.748Z,2.2
2018-11-23T10:07:59.536Z,2.2
2018-11-23T10:09:00.940Z,2.2
2018-11-23T10:10:02.479Z,2.3
2018-11-23T10:11:03.889Z,2.3
2018-11-23T10:12:05.278Z,2.2
2018-11-23T10:13:06.815Z,2.2
2018-11-23T10:14:08.211Z,2.3
2018-11-23T10:15:09.613Z,2.3
2018-11-23T10:16:11.123Z,2.3
2018-11-23T10:17:12.517Z,2.4
2018-11-23T10:18:13.918Z,2.4
2018-11-23T10:19:15.445Z,2.5
2018-11-23T10:20:16.841Z,2.4
2018-11-23T10:21:18.237Z,2.4
2018-11-23T10:22:19.767Z,2.6
2018-11-23T10:23:21.159Z,2.5
2018-11-23T10:24:23.617Z,2.5
2018-11-23T10:25:24.003Z,2.5
2018-11-23T10:26:25.527Z,2.5
2018-11-23T10:27:26.925Z,2.6
2018-11-23T10:28:28.317Z,2.6
2018-11-23T10:29:29.848Z,2.8
2018-11-23T10:30:31.242Z,2.8
2018-11-23T10:31:32.638Z,2.9
2018-11-23T10:32:34.167Z,3.0
2018-11-23T10:33:35.563Z,3.0
2018-11-23T10:34:37.049Z,3.0
2018-11-23T10:35:38.443Z,3.1
2018-11-23T10:36:39.932Z,3.2
2018-11-23T10:37:41.326Z,3.2
2018-11-23T10:38:42.723Z,3.1
2018-11-23T10:39:44.251Z,3.3
2018-11-23T10:40:45.643Z,3.2
2018-11-23T10:41:47.044Z,3.3
2018-11-23T10:42:48.573Z,3.4
2018-11-23T10:43:49.973Z,3.4
2018-11-23T10:44:51.372Z,3.5
2018-11-23T10:45:53.102Z,3.5
2018-11-23T10:46:54.496Z,3.7
2018-11-23T10:47:55.891Z,3.6
2018-11-23T10:48:57.423Z,3.7
2018-11-23T10:49:58.814Z,3.8
2018-11-23T10:51:00.300Z,3.8
2018-11-23T10:52:01.699Z,3.8
2018-11-23T10:53:03.094Z,4.0
2018-11-23T10:54:04.621Z,4.0
2018-11-23T10:55:06.019Z,4.0
2018-11-23T10:56:07.410Z,4.0
2018-11-23T10:57:08.946Z,4.0
2018-11-23T10:58:10.339Z,4.0
2018-11-23T10:59:11.745Z,4.1
2018-11-23T11:00:13.265Z,4.1
2018-11-23T11:01:14.658Z,4.2
2018-11-23T11:02:16.181Z,4.3
2018-11-23T11:03:17.574Z,4.3
2018-11-23T11:04:18.940Z,4.3
2018-11-23T11:05:20.465Z,4.4
2018-11-23T11:06:21.865Z,4.3
2018-11-23T11:07:23.258Z,4.4
2018-11-23T11:08:24.791Z,4.3
2018-11-23T11:09:26.185Z,4.3
2018-11-23T11:10:27.580Z,4.3
2018-11-23T11:11:29.115Z,4.4
2018-11-23T11:12:30.512Z,4.4
2018-11-23T11:13:31.909Z,4.4
2018-11-23T11:14:33.434Z,4.5
2018-11-23T11:15:34.828Z,4.5
2018-11-23T11:16:36.237Z,4.5
2018-11-23T11:17:37.764Z,4.6
2018-11-23T11:18:39.168Z,4.6
2018-11-23T11:19:40.560Z,4.6
2018-11-23T11:20:42.076Z,4.6
2018-11-23T11:21:43.480Z,4.6
2018-11-23T11:22:44.873Z,4.7
2018-11-23T11:23:46.396Z,4.9
2018-11-23T11:24:47.790Z,4.8
2018-11-23T11:25:49.191Z,4.9
2018-11-23T11:26:50.717Z,5.0
2018-11-23T11:27:52.115Z,5.0
2018-11-23T11:28:53.510Z,5.0
2018-11-23T11:29:55.038Z,4.9
2018-11-23T11:30:56.733Z,4.9
2018-11-23T11:31:57.804Z,5.0
2018-11-23T11:32:59.359Z,4.9
2018-11-23T11:34:00.757Z,5.0
2018-11-23T11:35:02.260Z,5.0
2018-11-23T11:36:03.647Z,5.0
2018-11-23T11:37:05.129Z,4.9
2018-11-23T11:38:06.917Z,4.9
2018-11-23T11:39:08.317Z,5.1
2018-11-23T11:40:09.847Z,5.0
2018-11-23T11:41:11.248Z,5.0
2018-11-23T11:42:12.646Z,5.2
2018-11-23T11:43:14.178Z,5.1
2018-11-23T11:44:15.568Z,5.2
2018-11-23T11:45:17.060Z,5.2
2018-11-23T11:46:18.461Z,5.2
2018-11-23T11:47:19.934Z,5.2
2018-11-23T11:48:21.326Z,5.2
2018-11-23T11:49:22.814Z,5.3
2018-11-23T11:50:24.212Z,5.2
2018-11-23T11:51:25.740Z,5.3
2018-11-23T11:52:27.138Z,5.3
2018-11-23T11:53:28.585Z,5.3
2018-11-23T11:54:29.978Z,5.3
2018-11-23T11:55:31.459Z,5.3
2018-11-23T11:56:32.868Z,5.5
2018-11-23T11:57:34.341Z,5.6
2018-11-23T11:58:35.749Z,5.7
2018-11-23T11:59:37.136Z,5.9
2018-11-23T12:00:38.663Z,6.1
2018-11-23T12:01:40.068Z,6.1
2018-11-23T12:02:41.461Z,6.3
2018-11-23T12:03:42.989Z,6.5
2018-11-23T12:04:44.390Z,6.4
2018-11-23T12:05:45.793Z,6.7
2018-11-23T12:06:47.305Z,6.6
2018-11-23T12:07:48.700Z,6.6
2018-11-23T12:08:50.098Z,6.6
2018-11-23T12:09:51.623Z,6.5
2018-11-23T12:10:53.021Z,6.5
2018-11-23T12:11:54.505Z,6.4
2018-11-23T12:12:55.903Z,6.2
2018-11-23T12:13:57.299Z,6.1
2018-11-23T12:14:58.827Z,6.1
2018-11-23T12:16:00.222Z,6.1
2018-11-23T12:17:01.622Z,6.0
2018-11-23T12:18:03.157Z,5.9
2018-11-23T12:19:05.650Z,6.0
2018-11-23T12:20:05.909Z,6.1
2018-11-23T12:21:07.469Z,6.1
2018-11-23T12:22:08.866Z,6.1
2018-11-23T12:23:10.351Z,6.1
2018-11-23T12:24:11.751Z,6.0
2018-11-23T12:25:13.230Z,6.1
2018-11-23T12:26:14.628Z,6.2
2018-11-23T12:27:16.111Z,6.1
2018-11-23T12:28:17.509Z,6.1
2018-11-23T12:29:18.906Z,6.2
2018-11-23T12:30:20.433Z,6.2
2018-11-23T12:31:21.833Z,6.4
2018-11-23T12:32:23.233Z,6.3
2018-11-23T12:33:25.134Z,6.4
2018-11-23T12:34:26.530Z,6.3
2018-11-23T12:35:27.927Z,6.4
2018-11-23T12:36:29.487Z,6.4
2018-11-23T12:37:30.885Z,6.4
2018-11-23T12:38:32.365Z,6.4
2018-11-23T12:39:33.763Z,6.4
2018-11-23T12:40:35.248Z,6.4
2018-11-23T12:41:36.642Z,6.4
2018-11-23T12:42:38.130Z,6.4
2018-11-23T12:43:39.532Z,6.5
2018-11-23T12:44:40.931Z,6.4
2018-11-23T12:45:42.451Z,6.5
2018-11-23T12:46:43.849Z,6.5
2018-11-23T12:47:45.244Z,6.4
2018-11-23T12:48:46.777Z,6.4
2018-11-23T12:49:48.170Z,6.4
2018-11-23T12:50:50.607Z,6.4
2018-11-23T12:51:51.013Z,6.4
2018-11-23T12:52:52.527Z,6.4
2018-11-23T12:53:53.935Z,6.4
2018-11-23T12:54:55.330Z,6.3
2018-11-23T12:55:56.854Z,6.3
2018-11-23T12:56:58.271Z,6.4
2018-11-23T12:57:59.671Z,6.4
2018-11-23T12:59:01.176Z,6.4
2018-11-23T13:00:02.574Z,6.5
2018-11-23T13:01:03.974Z,6.5
2018-11-23T13:02:05.500Z,6.4
2018-11-23T13:03:06.890Z,6.6
2018-11-23T13:04:08.288Z,6.7
2018-11-23T13:05:09.818Z,6.6
2018-11-23T13:06:11.215Z,6.6
2018-11-23T13:07:12.699Z,6.6
2018-11-23T13:08:14.100Z,6.6
2018-11-23T13:09:15.579Z,6.7
2018-11-23T13:10:16.979Z,6.7
2018-11-23T13:11:18.462Z,6.6
2018-11-23T13:12:19.857Z,6.7
2018-11-23T13:14:00.896Z,6.7
2018-11-23T13:15:02.292Z,6.7
2018-11-23T13:16:24.256Z,6.7
2018-11-23T13:17:25.672Z,6.8
2018-11-23T13:18:47.692Z,6.8
2018-11-23T13:19:49.086Z,6.8
2018-11-23T13:20:50.480Z,6.8
2018-11-23T13:21:51.933Z,6.7
2018-11-23T13:22:53.334Z,6.7
2018-11-23T13:23:54.727Z,6.7
2018-11-23T13:24:56.238Z,6.7
2018-11-23T13:25:57.629Z,6.7
2018-11-23T13:26:59.114Z,6.8
2018-11-23T13:28:00.516Z,6.8
2018-11-23T13:29:10.862Z,6.8
2018-11-23T13:30:03.356Z,6.8
2018-11-23T13:31:04.877Z,6.8
2018-11-23T13:32:06.274Z,6.8
2018-11-23T13:33:07.758Z,6.8
2018-11-23T13:34:09.155Z,6.8
2018-11-23T13:35:10.643Z,6.9
2018-11-23T13:36:12.041Z,6.9
2018-11-23T13:37:13.780Z,7.0
2018-11-23T13:38:15.168Z,6.9
2018-11-23T13:39:16.605Z,7.0
2018-11-23T13:40:18.005Z,7.0
2018-11-23T13:41:19.487Z,7.0
2018-11-23T13:42:20.883Z,7.0
2018-11-23T13:43:22.369Z,7.0
2018-11-23T13:44:23.769Z,7.0
2018-11-23T13:45:25.258Z,7.0
2018-11-23T13:46:26.647Z,7.0
2018-11-23T13:47:28.130Z,7.0
2018-11-23T13:48:29.527Z,6.9
2018-11-23T13:49:31.011Z,7.0
2018-11-23T13:50:32.406Z,7.0
2018-11-23T13:51:33.803Z,6.9